sensor_id;sensor_type;location;lat;lon;timestamp;P1;durP1;ratioP1;P2;durP2;ratioP2
69172;SDS011;56280;49.662;8.408;2023-02-25T00:02:18;21.43;;;19.83;;
69172;SDS011;56280;49.662;8.408;2023-02-25T00:04:43;20.03;;;18.60;;
69172;SDS011;56280;49.662;8.408;2023-02-25T00:07:11;19.37;;;17.90;;
69172;SDS011;56280;49.662;8.408;2023-02-25T00:09:39;20.90;;;19.30;;
69172;SDS011;56280;49.662;8.408;2023-02-25T00:12:05;20.80;;;19.17;;
69172;SDS011;56280;49.662;8.408;2023-02-25T00:14:30;21.77;;;20.10;;
69172;SDS011;56280;49.662;8.408;2023-02-25T00:16:55;22.67;;;21.08;;
69172;SDS011;56280;49.662;8.408;2023-02-25T00:19:22;20.23;;;18.63;;
69172;SDS011;56280;49.662;8.408;2023-02-25T00:21:48;18.38;;;16.85;;
69172;SDS011;56280;49.662;8.408;2023-02-25T00:24:13;21.40;;;19.80;;
69172;SDS011;56280;49.662;8.408;2023-02-25T00:26:39;18.00;;;16.60;;
69172;SDS011;56280;49.662;8.408;2023-02-25T00:29:05;17.38;;;16.08;;
69172;SDS011;56280;49.662;8.408;2023-02-25T00:31:30;16.90;;;15.60;;
69172;SDS011;56280;49.662;8.408;2023-02-25T00:33:56;17.77;;;16.40;;
69172;SDS011;56280;49.662;8.408;2023-02-25T00:36:23;20.52;;;19.02;;
69172;SDS011;56280;49.662;8.408;2023-02-25T00:38:51;18.08;;;16.75;;
69172;SDS011;56280;49.662;8.408;2023-02-25T00:41:19;17.47;;;16.07;;
69172;SDS011;56280;49.662;8.408;2023-02-25T00:43:48;19.40;;;18.00;;
69172;SDS011;56280;49.662;8.408;2023-02-25T00:46:15;19.30;;;17.80;;
69172;SDS011;56280;49.662;8.408;2023-02-25T00:48:41;18.48;;;16.98;;
69172;SDS011;56280;49.662;8.408;2023-02-25T00:51:08;19.73;;;17.97;;
69172;SDS011;56280;49.662;8.408;2023-02-25T00:53:35;20.23;;;18.52;;
69172;SDS011;56280;49.662;8.408;2023-02-25T00:56:04;21.20;;;19.42;;
69172;SDS011;56280;49.662;8.408;2023-02-25T00:58:33;19.05;;;17.33;;
69172;SDS011;56280;49.662;8.408;2023-02-25T01:00:59;21.02;;;19.23;;
69172;SDS011;56280;49.662;8.408;2023-02-25T01:03:25;20.05;;;17.73;;
69172;SDS011;56280;49.662;8.408;2023-02-25T01:05:51;20.83;;;18.88;;
69172;SDS011;56280;49.662;8.408;2023-02-25T01:08:17;21.88;;;19.95;;
69172;SDS011;56280;49.662;8.408;2023-02-25T01:10:43;21.08;;;19.08;;
69172;SDS011;56280;49.662;8.408;2023-02-25T01:13:09;21.10;;;19.02;;
69172;SDS011;56280;49.662;8.408;2023-02-25T01:15:35;22.17;;;20.27;;
69172;SDS011;56280;49.662;8.408;2023-02-25T01:18:00;21.23;;;19.13;;
69172;SDS011;56280;49.662;8.408;2023-02-25T01:20:25;22.00;;;19.57;;
69172;SDS011;56280;49.662;8.408;2023-02-25T01:22:53;21.92;;;19.92;;
69172;SDS011;56280;49.662;8.408;2023-02-25T01:25:19;22.57;;;20.47;;
69172;SDS011;56280;49.662;8.408;2023-02-25T01:27:44;22.17;;;20.27;;
69172;SDS011;56280;49.662;8.408;2023-02-25T01:30:09;22.58;;;20.35;;
69172;SDS011;56280;49.662;8.408;2023-02-25T01:32:36;22.83;;;20.85;;
69172;SDS011;56280;49.662;8.408;2023-02-25T01:35:01;22.37;;;20.37;;
69172;SDS011;56280;49.662;8.408;2023-02-25T01:37:27;22.15;;;20.08;;
69172;SDS011;56280;49.662;8.408;2023-02-25T01:39:53;22.55;;;20.50;;
69172;SDS011;56280;49.662;8.408;2023-02-25T01:42:18;18.87;;;17.23;;
69172;SDS011;56280;49.662;8.408;2023-02-25T01:47:41;20.37;;;18.67;;
69172;SDS011;56280;49.662;8.408;2023-02-25T01:50:08;19.30;;;17.70;;
69172;SDS011;56280;49.662;8.408;2023-02-25T01:52:35;20.65;;;18.90;;
69172;SDS011;56280;49.662;8.408;2023-02-25T01:55:04;19.05;;;17.42;;
69172;SDS011;56280;49.662;8.408;2023-02-25T01:57:30;19.42;;;17.98;;
69172;SDS011;56280;49.662;8.408;2023-02-25T01:59:55;22.13;;;20.33;;
69172;SDS011;56280;49.662;8.408;2023-02-25T02:02:21;19.77;;;18.07;;
69172;SDS011;56280;49.662;8.408;2023-02-25T02:04:50;19.13;;;17.48;;
69172;SDS011;56280;49.662;8.408;2023-02-25T02:07:18;21.20;;;19.60;;
69172;SDS011;56280;49.662;8.408;2023-02-25T02:09:45;20.35;;;18.75;;
69172;SDS011;56280;49.662;8.408;2023-02-25T02:12:20;21.48;;;19.52;;
69172;SDS011;56280;49.662;8.408;2023-02-25T02:14:47;19.15;;;17.52;;
69172;SDS011;56280;49.662;8.408;2023-02-25T02:17:20;16.63;;;14.90;;
69172;SDS011;56280;49.662;8.408;2023-02-25T02:36:19;16.40;;;15.00;;
69172;SDS011;56280;49.662;8.408;2023-02-25T02:39:23;19.65;;;17.83;;
69172;SDS011;56280;49.662;8.408;2023-02-25T02:41:58;17.73;;;16.10;;
69172;SDS011;56280;49.662;8.408;2023-02-25T02:47:47;16.20;;;14.82;;
69172;SDS011;56280;49.662;8.408;2023-02-25T02:50:23;17.65;;;15.85;;
69172;SDS011;56280;49.662;8.408;2023-02-25T02:52:55;19.27;;;17.42;;
69172;SDS011;56280;49.662;8.408;2023-02-25T02:55:29;18.98;;;17.23;;
69172;SDS011;56280;49.662;8.408;2023-02-25T02:58:01;19.42;;;17.92;;
69172;SDS011;56280;49.662;8.408;2023-02-25T03:00:33;18.60;;;17.02;;
69172;SDS011;56280;49.662;8.408;2023-02-25T03:03:05;20.27;;;18.58;;
69172;SDS011;56280;49.662;8.408;2023-02-25T03:05:34;20.08;;;18.52;;
69172;SDS011;56280;49.662;8.408;2023-02-25T03:08:06;19.75;;;18.05;;
69172;SDS011;56280;49.662;8.408;2023-02-25T03:10:35;20.20;;;18.53;;
69172;SDS011;56280;49.662;8.408;2023-02-25T03:13:01;17.83;;;16.38;;
69172;SDS011;56280;49.662;8.408;2023-02-25T03:15:26;17.57;;;16.00;;
69172;SDS011;56280;49.662;8.408;2023-02-25T03:17:54;18.85;;;17.15;;
69172;SDS011;56280;49.662;8.408;2023-02-25T03:20:27;17.20;;;15.65;;
69172;SDS011;56280;49.662;8.408;2023-02-25T03:22:55;16.17;;;14.68;;
69172;SDS011;56280;49.662;8.408;2023-02-25T03:25:27;19.02;;;17.52;;
69172;SDS011;56280;49.662;8.408;2023-02-25T03:27:57;18.95;;;17.42;;
69172;SDS011;56280;49.662;8.408;2023-02-25T03:30:28;19.17;;;17.57;;
69172;SDS011;56280;49.662;8.408;2023-02-25T03:33:04;17.25;;;15.57;;
69172;SDS011;56280;49.662;8.408;2023-02-25T03:35:33;18.95;;;17.40;;
69172;SDS011;56280;49.662;8.408;2023-02-25T03:38:01;18.58;;;17.00;;
69172;SDS011;56280;49.662;8.408;2023-02-25T03:40:31;17.10;;;15.45;;
69172;SDS011;56280;49.662;8.408;2023-02-25T03:42:59;17.02;;;14.25;;
69172;SDS011;56280;49.662;8.408;2023-02-25T03:45:31;18.80;;;17.08;;
69172;SDS011;56280;49.662;8.408;2023-02-25T03:47:59;19.80;;;18.20;;
69172;SDS011;56280;49.662;8.408;2023-02-25T03:50:30;19.95;;;18.30;;
69172;SDS011;56280;49.662;8.408;2023-02-25T03:52:59;18.58;;;17.10;;
69172;SDS011;56280;49.662;8.408;2023-02-25T03:55:25;19.23;;;17.27;;
69172;SDS011;56280;49.662;8.408;2023-02-25T03:57:53;17.92;;;16.45;;
69172;SDS011;56280;49.662;8.408;2023-02-25T04:00:23;18.00;;;16.30;;
69172;SDS011;56280;49.662;8.408;2023-02-25T04:02:50;17.42;;;15.88;;
69172;SDS011;56280;49.662;8.408;2023-02-25T04:05:16;17.00;;;15.47;;
69172;SDS011;56280;49.662;8.408;2023-02-25T04:07:43;17.15;;;15.32;;
69172;SDS011;56280;49.662;8.408;2023-02-25T04:10:09;18.00;;;16.43;;
69172;SDS011;56280;49.662;8.408;2023-02-25T04:12:35;18.83;;;16.92;;
69172;SDS011;56280;49.662;8.408;2023-02-25T04:15:01;18.23;;;16.47;;
69172;SDS011;56280;49.662;8.408;2023-02-25T04:17:26;19.45;;;17.75;;
69172;SDS011;56280;49.662;8.408;2023-02-25T04:19:52;19.23;;;17.30;;
69172;SDS011;56280;49.662;8.408;2023-02-25T04:22:17;19.13;;;17.37;;
69172;SDS011;56280;49.662;8.408;2023-02-25T04:24:42;19.67;;;17.73;;
69172;SDS011;56280;49.662;8.408;2023-02-25T04:27:08;18.80;;;17.10;;
69172;SDS011;56280;49.662;8.408;2023-02-25T04:29:33;21.00;;;18.90;;
69172;SDS011;56280;49.662;8.408;2023-02-25T04:31:58;19.07;;;17.30;;
69172;SDS011;56280;49.662;8.408;2023-02-25T04:34:24;16.70;;;15.00;;
69172;SDS011;56280;49.662;8.408;2023-02-25T04:36:49;18.57;;;16.67;;
69172;SDS011;56280;49.662;8.408;2023-02-25T04:39:15;18.10;;;16.40;;
69172;SDS011;56280;49.662;8.408;2023-02-25T04:41:42;19.88;;;17.92;;
69172;SDS011;56280;49.662;8.408;2023-02-25T04:44:08;17.90;;;16.27;;
69172;SDS011;56280;49.662;8.408;2023-02-25T04:46:35;17.30;;;15.48;;
69172;SDS011;56280;49.662;8.408;2023-02-25T04:49:02;17.95;;;16.38;;
69172;SDS011;56280;49.662;8.408;2023-02-25T04:51:28;19.67;;;18.17;;
69172;SDS011;56280;49.662;8.408;2023-02-25T04:53:53;19.57;;;17.73;;
69172;SDS011;56280;49.662;8.408;2023-02-25T04:56:18;16.67;;;15.17;;
69172;SDS011;56280;49.662;8.408;2023-02-25T04:58:44;20.67;;;18.53;;
69172;SDS011;56280;49.662;8.408;2023-02-25T05:01:10;19.35;;;17.52;;
69172;SDS011;56280;49.662;8.408;2023-02-25T05:03:36;21.60;;;19.60;;
69172;SDS011;56280;49.662;8.408;2023-02-25T05:06:02;20.33;;;18.33;;
69172;SDS011;56280;49.662;8.408;2023-02-25T05:08:28;19.70;;;17.70;;
69172;SDS011;56280;49.662;8.408;2023-02-25T05:10:53;21.17;;;19.37;;
69172;SDS011;56280;49.662;8.408;2023-02-25T05:13:19;20.57;;;18.47;;
69172;SDS011;56280;49.662;8.408;2023-02-25T05:15:45;20.60;;;18.50;;
69172;SDS011;56280;49.662;8.408;2023-02-25T05:18:11;19.33;;;17.23;;
69172;SDS011;56280;49.662;8.408;2023-02-25T05:20:40;21.77;;;19.67;;
69172;SDS011;56280;49.662;8.408;2023-02-25T05:23:07;20.20;;;17.97;;
69172;SDS011;56280;49.662;8.408;2023-02-25T05:25:32;19.33;;;17.40;;
69172;SDS011;56280;49.662;8.408;2023-02-25T05:27:58;20.75;;;18.88;;
69172;SDS011;56280;49.662;8.408;2023-02-25T05:30:24;22.92;;;20.90;;
69172;SDS011;56280;49.662;8.408;2023-02-25T05:32:49;23.33;;;21.15;;
69172;SDS011;56280;49.662;8.408;2023-02-25T05:35:14;19.37;;;17.73;;
69172;SDS011;56280;49.662;8.408;2023-02-25T05:37:39;22.07;;;20.10;;
69172;SDS011;56280;49.662;8.408;2023-02-25T05:40:05;22.23;;;20.13;;
69172;SDS011;56280;49.662;8.408;2023-02-25T05:42:33;22.80;;;20.75;;
69172;SDS011;56280;49.662;8.408;2023-02-25T05:44:58;21.33;;;19.33;;
69172;SDS011;56280;49.662;8.408;2023-02-25T05:47:23;22.00;;;19.83;;
69172;SDS011;56280;49.662;8.408;2023-02-25T05:49:49;20.60;;;18.60;;
69172;SDS011;56280;49.662;8.408;2023-02-25T05:52:14;17.93;;;16.33;;
69172;SDS011;56280;49.662;8.408;2023-02-25T05:54:39;19.33;;;17.60;;
69172;SDS011;56280;49.662;8.408;2023-02-25T05:57:04;19.88;;;17.98;;
69172;SDS011;56280;49.662;8.408;2023-02-25T05:59:30;18.25;;;16.35;;
69172;SDS011;56280;49.662;8.408;2023-02-25T06:01:56;20.17;;;18.20;;
69172;SDS011;56280;49.662;8.408;2023-02-25T06:04:24;20.73;;;18.80;;
69172;SDS011;56280;49.662;8.408;2023-02-25T06:06:50;19.77;;;17.77;;
69172;SDS011;56280;49.662;8.408;2023-02-25T06:09:16;20.15;;;17.58;;
69172;SDS011;56280;49.662;8.408;2023-02-25T06:11:45;19.10;;;17.25;;
69172;SDS011;56280;49.662;8.408;2023-02-25T06:14:11;20.08;;;18.25;;
69172;SDS011;56280;49.662;8.408;2023-02-25T06:16:37;22.90;;;20.87;;
69172;SDS011;56280;49.662;8.408;2023-02-25T06:19:04;20.02;;;18.02;;
69172;SDS011;56280;49.662;8.408;2023-02-25T06:21:30;20.92;;;18.88;;
69172;SDS011;56280;49.662;8.408;2023-02-25T06:23:56;21.07;;;19.10;;
69172;SDS011;56280;49.662;8.408;2023-02-25T06:26:22;21.15;;;18.10;;
69172;SDS011;56280;49.662;8.408;2023-02-25T06:28:47;21.77;;;19.75;;
69172;SDS011;56280;49.662;8.408;2023-02-25T06:31:14;22.33;;;20.33;;
69172;SDS011;56280;49.662;8.408;2023-02-25T06:33:40;21.27;;;19.20;;
69172;SDS011;56280;49.662;8.408;2023-02-25T06:36:06;20.40;;;18.23;;
69172;SDS011;56280;49.662;8.408;2023-02-25T06:38:33;22.38;;;20.17;;
69172;SDS011;56280;49.662;8.408;2023-02-25T06:41:03;23.15;;;21.02;;
69172;SDS011;56280;49.662;8.408;2023-02-25T06:43:33;20.85;;;18.77;;
69172;SDS011;56280;49.662;8.408;2023-02-25T06:46:02;21.55;;;19.75;;
69172;SDS011;56280;49.662;8.408;2023-02-25T06:48:29;21.45;;;19.55;;
69172;SDS011;56280;49.662;8.408;2023-02-25T06:50:54;21.90;;;19.70;;
69172;SDS011;56280;49.662;8.408;2023-02-25T06:53:19;20.80;;;18.80;;
69172;SDS011;56280;49.662;8.408;2023-02-25T06:55:44;22.03;;;20.03;;
69172;SDS011;56280;49.662;8.408;2023-02-25T06:58:10;20.63;;;18.50;;
69172;SDS011;56280;49.662;8.408;2023-02-25T07:00:35;20.50;;;18.40;;
69172;SDS011;56280;49.662;8.408;2023-02-25T07:03:01;21.05;;;18.98;;
69172;SDS011;56280;49.662;8.408;2023-02-25T07:05:27;20.35;;;18.65;;
69172;SDS011;56280;49.662;8.408;2023-02-25T07:07:53;19.23;;;17.40;;
69172;SDS011;56280;49.662;8.408;2023-02-25T07:10:18;20.47;;;18.50;;
69172;SDS011;56280;49.662;8.408;2023-02-25T07:12:43;21.03;;;19.07;;
69172;SDS011;56280;49.662;8.408;2023-02-25T07:15:08;20.43;;;18.67;;
69172;SDS011;56280;49.662;8.408;2023-02-25T07:17:34;19.60;;;17.93;;
69172;SDS011;56280;49.662;8.408;2023-02-25T07:20:01;19.65;;;17.90;;
69172;SDS011;56280;49.662;8.408;2023-02-25T07:22:27;18.93;;;17.07;;
69172;SDS011;56280;49.662;8.408;2023-02-25T07:24:52;23.10;;;21.10;;
69172;SDS011;56280;49.662;8.408;2023-02-25T07:27:17;20.77;;;18.87;;
69172;SDS011;56280;49.662;8.408;2023-02-25T07:29:43;23.90;;;21.70;;
69172;SDS011;56280;49.662;8.408;2023-02-25T07:32:11;21.43;;;19.63;;
69172;SDS011;56280;49.662;8.408;2023-02-25T07:34:38;20.52;;;18.40;;
69172;SDS011;56280;49.662;8.408;2023-02-25T07:37:07;21.73;;;19.73;;
69172;SDS011;56280;49.662;8.408;2023-02-25T07:39:36;18.88;;;17.10;;
69172;SDS011;56280;49.662;8.408;2023-02-25T07:42:01;18.25;;;15.88;;
69172;SDS011;56280;49.662;8.408;2023-02-25T07:44:26;21.27;;;19.17;;
69172;SDS011;56280;49.662;8.408;2023-02-25T07:46:51;20.00;;;18.00;;
69172;SDS011;56280;49.662;8.408;2023-02-25T07:49:17;22.08;;;20.13;;
69172;SDS011;56280;49.662;8.408;2023-02-25T07:51:42;20.13;;;18.23;;
69172;SDS011;56280;49.662;8.408;2023-02-25T07:54:13;19.42;;;17.63;;
69172;SDS011;56280;49.662;8.408;2023-02-25T07:56:40;20.13;;;18.45;;
69172;SDS011;56280;49.662;8.408;2023-02-25T07:59:10;19.95;;;18.10;;
69172;SDS011;56280;49.662;8.408;2023-02-25T08:01:36;19.98;;;18.27;;
69172;SDS011;56280;49.662;8.408;2023-02-25T08:04:03;20.52;;;18.63;;
69172;SDS011;56280;49.662;8.408;2023-02-25T08:06:31;19.80;;;17.80;;
69172;SDS011;56280;49.662;8.408;2023-02-25T08:08:59;19.08;;;17.48;;
69172;SDS011;56280;49.662;8.408;2023-02-25T08:11:24;19.90;;;18.20;;
69172;SDS011;56280;49.662;8.408;2023-02-25T08:13:50;20.20;;;18.33;;
69172;SDS011;56280;49.662;8.408;2023-02-25T08:16:17;21.70;;;19.73;;
69172;SDS011;56280;49.662;8.408;2023-02-25T08:18:44;20.40;;;18.45;;
69172;SDS011;56280;49.662;8.408;2023-02-25T08:21:11;19.17;;;17.27;;
69172;SDS011;56280;49.662;8.408;2023-02-25T08:23:38;19.40;;;17.40;;
69172;SDS011;56280;49.662;8.408;2023-02-25T08:26:04;20.65;;;18.58;;
69172;SDS011;56280;49.662;8.408;2023-02-25T08:28:30;19.60;;;17.70;;
69172;SDS011;56280;49.662;8.408;2023-02-25T08:30:56;21.57;;;19.53;;
69172;SDS011;56280;49.662;8.408;2023-02-25T08:33:22;19.13;;;17.23;;
69172;SDS011;56280;49.662;8.408;2023-02-25T08:35:48;17.70;;;16.00;;
69172;SDS011;56280;49.662;8.408;2023-02-25T08:38:14;20.00;;;18.10;;
69172;SDS011;56280;49.662;8.408;2023-02-25T08:40:42;17.10;;;15.17;;
69172;SDS011;56280;49.662;8.408;2023-02-25T08:43:08;17.73;;;16.08;;
69172;SDS011;56280;49.662;8.408;2023-02-25T08:45:35;17.23;;;15.52;;
69172;SDS011;56280;49.662;8.408;2023-02-25T08:48:01;18.47;;;16.80;;
69172;SDS011;56280;49.662;8.408;2023-02-25T08:50:26;17.63;;;15.93;;
69172;SDS011;56280;49.662;8.408;2023-02-25T08:52:53;18.70;;;16.58;;
69172;SDS011;56280;49.662;8.408;2023-02-25T08:55:19;18.37;;;16.77;;
69172;SDS011;56280;49.662;8.408;2023-02-25T08:57:44;19.20;;;17.30;;
69172;SDS011;56280;49.662;8.408;2023-02-25T09:00:11;17.17;;;15.57;;
69172;SDS011;56280;49.662;8.408;2023-02-25T09:02:39;20.50;;;18.33;;
69172;SDS011;56280;49.662;8.408;2023-02-25T09:05:05;18.43;;;16.53;;
69172;SDS011;56280;49.662;8.408;2023-02-25T09:07:30;18.55;;;16.85;;
69172;SDS011;56280;49.662;8.408;2023-02-25T09:09:56;18.60;;;16.90;;
69172;SDS011;56280;49.662;8.408;2023-02-25T09:12:21;18.60;;;16.77;;
69172;SDS011;56280;49.662;8.408;2023-02-25T09:14:46;18.80;;;17.27;;
69172;SDS011;56280;49.662;8.408;2023-02-25T09:17:12;19.60;;;18.10;;
69172;SDS011;56280;49.662;8.408;2023-02-25T09:19:37;20.53;;;18.73;;
69172;SDS011;56280;49.662;8.408;2023-02-25T09:22:03;19.47;;;17.77;;
69172;SDS011;56280;49.662;8.408;2023-02-25T09:24:32;18.65;;;16.80;;
69172;SDS011;56280;49.662;8.408;2023-02-25T09:26:59;20.63;;;18.93;;
69172;SDS011;56280;49.662;8.408;2023-02-25T09:29:25;17.97;;;16.53;;
69172;SDS011;56280;49.662;8.408;2023-02-25T09:31:52;19.17;;;17.50;;
69172;SDS011;56280;49.662;8.408;2023-02-25T09:34:17;21.73;;;19.87;;
69172;SDS011;56280;49.662;8.408;2023-02-25T09:36:44;20.00;;;18.50;;
69172;SDS011;56280;49.662;8.408;2023-02-25T09:39:09;17.47;;;16.17;;
69172;SDS011;56280;49.662;8.408;2023-02-25T09:44:18;16.10;;;14.80;;
69172;SDS011;56280;49.662;8.408;2023-02-25T09:46:51;19.17;;;17.63;;
69172;SDS011;56280;49.662;8.408;2023-02-25T09:49:23;18.85;;;17.48;;
69172;SDS011;56280;49.662;8.408;2023-02-25T09:51:58;16.70;;;15.30;;
69172;SDS011;56280;49.662;8.408;2023-02-25T09:54:31;18.25;;;16.75;;
69172;SDS011;56280;49.662;8.408;2023-02-25T09:57:01;17.77;;;16.08;;
69172;SDS011;56280;49.662;8.408;2023-02-25T09:59:30;18.10;;;16.60;;
69172;SDS011;56280;49.662;8.408;2023-02-25T10:02:01;16.83;;;15.38;;
69172;SDS011;56280;49.662;8.408;2023-02-25T10:05:02;18.75;;;17.00;;
69172;SDS011;56280;49.662;8.408;2023-02-25T10:07:33;18.00;;;16.30;;
69172;SDS011;56280;49.662;8.408;2023-02-25T10:10:02;17.88;;;16.08;;
69172;SDS011;56280;49.662;8.408;2023-02-25T10:12:44;19.20;;;17.40;;
69172;SDS011;56280;49.662;8.408;2023-02-25T10:18:45;18.63;;;16.97;;
69172;SDS011;56280;49.662;8.408;2023-02-25T10:26:50;20.63;;;18.83;;
69172;SDS011;56280;49.662;8.408;2023-02-25T10:29:25;18.33;;;16.63;;
69172;SDS011;56280;49.662;8.408;2023-02-25T10:31:55;17.88;;;16.02;;
69172;SDS011;56280;49.662;8.408;2023-02-25T10:34:24;17.45;;;15.68;;
69172;SDS011;56280;49.662;8.408;2023-02-25T10:36:55;20.90;;;19.10;;
69172;SDS011;56280;49.662;8.408;2023-02-25T10:39:23;16.50;;;14.73;;
69172;SDS011;56280;49.662;8.408;2023-02-25T10:41:50;16.33;;;14.40;;
69172;SDS011;56280;49.662;8.408;2023-02-25T10:44:15;19.00;;;17.30;;
69172;SDS011;56280;49.662;8.408;2023-02-25T10:49:27;19.77;;;17.97;;
69172;SDS011;56280;49.662;8.408;2023-02-25T10:54:30;18.00;;;16.25;;
69172;SDS011;56280;49.662;8.408;2023-02-25T10:56:58;21.60;;;19.85;;
69172;SDS011;56280;49.662;8.408;2023-02-25T10:59:28;19.13;;;17.17;;
69172;SDS011;56280;49.662;8.408;2023-02-25T11:01:59;19.35;;;17.48;;
69172;SDS011;56280;49.662;8.408;2023-02-25T11:04:31;18.75;;;16.98;;
69172;SDS011;56280;49.662;8.408;2023-02-25T11:06:58;16.83;;;15.20;;
69172;SDS011;56280;49.662;8.408;2023-02-25T11:11:53;20.33;;;18.43;;
69172;SDS011;56280;49.662;8.408;2023-02-25T11:14:31;19.23;;;17.50;;
69172;SDS011;56280;49.662;8.408;2023-02-25T11:17:01;16.92;;;15.43;;
69172;SDS011;56280;49.662;8.408;2023-02-25T11:19:59;20.27;;;18.38;;
69172;SDS011;56280;49.662;8.408;2023-02-25T11:22:31;21.27;;;19.48;;
69172;SDS011;56280;49.662;8.408;2023-02-25T11:25:02;19.77;;;17.90;;
69172;SDS011;56280;49.662;8.408;2023-02-25T11:27:32;22.05;;;20.15;;
69172;SDS011;56280;49.662;8.408;2023-02-25T11:32:38;19.57;;;17.70;;
69172;SDS011;56280;49.662;8.408;2023-02-25T11:35:06;19.77;;;17.75;;
69172;SDS011;56280;49.662;8.408;2023-02-25T11:37:41;21.50;;;19.60;;
69172;SDS011;56280;49.662;8.408;2023-02-25T11:40:28;19.63;;;17.77;;
69172;SDS011;56280;49.662;8.408;2023-02-25T11:43:02;18.75;;;17.20;;
69172;SDS011;56280;49.662;8.408;2023-02-25T11:45:49;20.65;;;18.92;;
69172;SDS011;56280;49.662;8.408;2023-02-25T11:48:26;19.23;;;17.55;;
69172;SDS011;56280;49.662;8.408;2023-02-25T11:56:43;19.33;;;17.43;;
69172;SDS011;56280;49.662;8.408;2023-02-25T12:06:02;17.67;;;16.17;;
69172;SDS011;56280;49.662;8.408;2023-02-25T12:08:54;19.35;;;17.75;;
69172;SDS011;56280;49.662;8.408;2023-02-25T12:25:36;18.15;;;15.85;;
69172;SDS011;56280;49.662;8.408;2023-02-25T12:28:14;18.13;;;16.33;;
69172;SDS011;56280;49.662;8.408;2023-02-25T12:32:12;18.48;;;16.67;;
69172;SDS011;56280;49.662;8.408;2023-02-25T12:48:05;17.33;;;15.50;;
69172;SDS011;56280;49.662;8.408;2023-02-25T12:59:10;19.08;;;17.45;;
69172;SDS011;56280;49.662;8.408;2023-02-25T13:01:55;19.48;;;17.77;;
69172;SDS011;56280;49.662;8.408;2023-02-25T13:04:37;19.17;;;17.45;;
69172;SDS011;56280;49.662;8.408;2023-02-25T13:21:14;17.95;;;16.23;;
69172;SDS011;56280;49.662;8.408;2023-02-25T13:23:51;22.05;;;19.95;;
69172;SDS011;56280;49.662;8.408;2023-02-25T13:35:20;18.20;;;16.95;;
69172;SDS011;56280;49.662;8.408;2023-02-25T13:40:53;16.48;;;15.48;;
69172;SDS011;56280;49.662;8.408;2023-02-25T13:43:32;18.50;;;17.40;;
69172;SDS011;56280;49.662;8.408;2023-02-25T13:52:06;15.23;;;14.30;;
69172;SDS011;56280;49.662;8.408;2023-02-25T13:57:40;16.20;;;15.20;;
69172;SDS011;56280;49.662;8.408;2023-02-25T14:03:02;16.02;;;15.00;;
69172;SDS011;56280;49.662;8.408;2023-02-25T14:19:25;18.80;;;17.63;;
69172;SDS011;56280;49.662;8.408;2023-02-25T14:22:20;18.02;;;16.80;;
69172;SDS011;56280;49.662;8.408;2023-02-25T14:27:43;17.30;;;15.93;;
69172;SDS011;56280;49.662;8.408;2023-02-25T14:30:13;18.63;;;17.33;;
69172;SDS011;56280;49.662;8.408;2023-02-25T14:35:31;19.55;;;18.25;;
69172;SDS011;56280;49.662;8.408;2023-02-25T14:38:13;17.20;;;16.00;;
69172;SDS011;56280;49.662;8.408;2023-02-25T14:40:46;15.52;;;14.32;;
69172;SDS011;56280;49.662;8.408;2023-02-25T14:45:55;18.42;;;17.20;;
69172;SDS011;56280;49.662;8.408;2023-02-25T14:51:26;19.60;;;18.30;;
69172;SDS011;56280;49.662;8.408;2023-02-25T14:56:45;17.67;;;16.37;;
69172;SDS011;56280;49.662;8.408;2023-02-25T14:59:30;16.30;;;15.30;;
69172;SDS011;56280;49.662;8.408;2023-02-25T15:16:20;14.47;;;13.67;;
69172;SDS011;56280;49.662;8.408;2023-02-25T15:18:55;16.83;;;15.82;;
69172;SDS011;56280;49.662;8.408;2023-02-25T15:21:42;18.75;;;17.65;;
69172;SDS011;56280;49.662;8.408;2023-02-25T15:24:34;17.23;;;16.23;;
69172;SDS011;56280;49.662;8.408;2023-02-25T15:27:30;17.83;;;16.73;;
69172;SDS011;56280;49.662;8.408;2023-02-25T15:29:58;17.73;;;16.63;;
69172;SDS011;56280;49.662;8.408;2023-02-25T15:37:33;16.00;;;14.90;;
69172;SDS011;56280;49.662;8.408;2023-02-25T15:53:10;14.00;;;13.00;;
69172;SDS011;56280;49.662;8.408;2023-02-25T16:16:49;16.48;;;15.27;;
69172;SDS011;56280;49.662;8.408;2023-02-25T16:19:20;15.82;;;14.63;;
69172;SDS011;56280;49.662;8.408;2023-02-25T16:21:51;17.60;;;16.23;;
69172;SDS011;56280;49.662;8.408;2023-02-25T16:24:20;15.75;;;14.45;;
69172;SDS011;56280;49.662;8.408;2023-02-25T16:26:51;16.35;;;15.25;;
69172;SDS011;56280;49.662;8.408;2023-02-25T16:40:42;17.35;;;16.25;;
69172;SDS011;56280;49.662;8.408;2023-02-25T16:43:12;16.70;;;15.45;;
69172;SDS011;56280;49.662;8.408;2023-02-25T16:45:54;17.75;;;16.65;;
69172;SDS011;56280;49.662;8.408;2023-02-25T16:48:31;16.80;;;15.65;;
69172;SDS011;56280;49.662;8.408;2023-02-25T16:51:07;16.33;;;15.33;;
69172;SDS011;56280;49.662;8.408;2023-02-25T16:53:34;15.68;;;14.75;;
69172;SDS011;56280;49.662;8.408;2023-02-25T16:56:09;16.43;;;15.43;;
69172;SDS011;56280;49.662;8.408;2023-02-25T16:58:44;18.15;;;17.02;;
69172;SDS011;56280;49.662;8.408;2023-02-25T17:01:23;16.63;;;15.45;;
69172;SDS011;56280;49.662;8.408;2023-02-25T17:03:48;16.90;;;15.88;;
69172;SDS011;56280;49.662;8.408;2023-02-25T17:06:14;17.73;;;16.63;;
69172;SDS011;56280;49.662;8.408;2023-02-25T17:08:42;16.77;;;15.65;;
69172;SDS011;56280;49.662;8.408;2023-02-25T17:11:17;17.15;;;16.05;;
69172;SDS011;56280;49.662;8.408;2023-02-25T17:13:46;17.40;;;16.38;;
69172;SDS011;56280;49.662;8.408;2023-02-25T17:16:46;16.63;;;15.43;;
69172;SDS011;56280;49.662;8.408;2023-02-25T17:19:07;17.50;;;16.30;;
69172;SDS011;56280;49.662;8.408;2023-02-25T17:21:36;17.73;;;16.63;;
69172;SDS011;56280;49.662;8.408;2023-02-25T17:24:06;16.90;;;15.80;;
69172;SDS011;56280;49.662;8.408;2023-02-25T17:26:41;15.73;;;14.57;;
69172;SDS011;56280;49.662;8.408;2023-02-25T17:29:09;14.80;;;13.70;;
69172;SDS011;56280;49.662;8.408;2023-02-25T17:31:41;12.77;;;11.77;;
69172;SDS011;56280;49.662;8.408;2023-02-25T17:34:29;15.07;;;13.88;;
69172;SDS011;56280;49.662;8.408;2023-02-25T17:36:58;15.27;;;14.02;;
69172;SDS011;56280;49.662;8.408;2023-02-25T17:39:27;14.13;;;13.02;;
69172;SDS011;56280;49.662;8.408;2023-02-25T17:41:53;15.88;;;14.70;;
69172;SDS011;56280;49.662;8.408;2023-02-25T17:47:20;14.23;;;13.02;;
69172;SDS011;56280;49.662;8.408;2023-02-25T17:49:49;14.30;;;13.30;;
69172;SDS011;56280;49.662;8.408;2023-02-25T17:52:17;14.10;;;12.90;;
69172;SDS011;56280;49.662;8.408;2023-02-25T17:54:47;14.40;;;13.20;;
69172;SDS011;56280;49.662;8.408;2023-02-25T17:57:20;15.50;;;14.13;;
69172;SDS011;56280;49.662;8.408;2023-02-25T18:00:00;15.00;;;13.80;;
69172;SDS011;56280;49.662;8.408;2023-02-25T18:02:38;14.27;;;12.97;;
69172;SDS011;56280;49.662;8.408;2023-02-25T18:05:12;14.52;;;13.32;;
69172;SDS011;56280;49.662;8.408;2023-02-25T18:07:41;15.40;;;14.23;;
69172;SDS011;56280;49.662;8.408;2023-02-25T18:12:47;15.70;;;14.38;;
69172;SDS011;56280;49.662;8.408;2023-02-25T18:17:39;15.02;;;13.82;;
69172;SDS011;56280;49.662;8.408;2023-02-25T18:20:13;14.73;;;13.53;;
69172;SDS011;56280;49.662;8.408;2023-02-25T18:22:51;14.93;;;13.63;;
69172;SDS011;56280;49.662;8.408;2023-02-25T18:27:56;13.40;;;12.25;;
69172;SDS011;56280;49.662;8.408;2023-02-25T18:30:23;15.30;;;14.07;;